sensor_id;sensor_type;location;lat;lon;timestamp;P1;durP1;ratioP1;P2;durP2;ratioP2
18443;SDS011;9350;53.176;8.194;2023-10-08T00:01:01;1.50;;;1.40;;
18443;SDS011;9350;53.176;8.194;2023-10-08T00:03:31;1.70;;;1.55;;
18443;SDS011;9350;53.176;8.194;2023-10-08T00:05:58;1.83;;;1.73;;
18443;SDS011;9350;53.176;8.194;2023-10-08T00:08:31;2.10;;;2.00;;
18443;SDS011;9350;53.176;8.194;2023-10-08T00:10:59;2.25;;;1.95;;
18443;SDS011;9350;53.176;8.194;2023-10-08T00:13:31;2.25;;;2.10;;
18443;SDS011;9350;53.176;8.194;2023-10-08T00:16:01;1.98;;;1.83;;
18443;SDS011;9350;53.176;8.194;2023-10-08T00:18:32;4.05;;;2.42;;
18443;SDS011;9350;53.176;8.194;2023-10-08T00:20:59;2.70;;;2.50;;
18443;SDS011;9350;53.176;8.194;2023-10-08T00:23:41;2.30;;;2.10;;
18443;SDS011;9350;53.176;8.194;2023-10-08T00:26:15;3.28;;;2.50;;
18443;SDS011;9350;53.176;8.194;2023-10-08T00:28:44;2.95;;;2.55;;
18443;SDS011;9350;53.176;8.194;2023-10-08T00:31:12;3.35;;;2.85;;
18443;SDS011;9350;53.176;8.194;2023-10-08T00:33:42;3.17;;;2.88;;
18443;SDS011;9350;53.176;8.194;2023-10-08T00:36:09;3.40;;;3.10;;
18443;SDS011;9350;53.176;8.194;2023-10-08T00:38:44;4.07;;;2.90;;
18443;SDS011;9350;53.176;8.194;2023-10-08T00:41:12;5.60;;;3.30;;
18443;SDS011;9350;53.176;8.194;2023-10-08T00:43:41;3.58;;;3.00;;
18443;SDS011;9350;53.176;8.194;2023-10-08T00:46:10;3.47;;;3.17;;
18443;SDS011;9350;53.176;8.194;2023-10-08T00:48:45;4.95;;;3.17;;
18443;SDS011;9350;53.176;8.194;2023-10-08T00:51:12;3.58;;;3.20;;
18443;SDS011;9350;53.176;8.194;2023-10-08T00:53:52;4.13;;;3.03;;
18443;SDS011;9350;53.176;8.194;2023-10-08T00:56:24;5.75;;;3.05;;
18443;SDS011;9350;53.176;8.194;2023-10-08T00:59:09;5.70;;;3.33;;
18443;SDS011;9350;53.176;8.194;2023-10-08T01:01:40;6.25;;;3.78;;
18443;SDS011;9350;53.176;8.194;2023-10-08T01:04:14;6.72;;;3.45;;
18443;SDS011;9350;53.176;8.194;2023-10-08T01:06:41;4.30;;;3.10;;
18443;SDS011;9350;53.176;8.194;2023-10-08T01:09:08;5.13;;;3.55;;
18443;SDS011;9350;53.176;8.194;2023-10-08T01:11:44;7.45;;;3.60;;
18443;SDS011;9350;53.176;8.194;2023-10-08T01:14:14;4.10;;;3.30;;
18443;SDS011;9350;53.176;8.194;2023-10-08T01:16:43;4.40;;;3.67;;
18443;SDS011;9350;53.176;8.194;2023-10-08T01:19:12;4.28;;;3.53;;
18443;SDS011;9350;53.176;8.194;2023-10-08T01:21:45;5.40;;;3.63;;
18443;SDS011;9350;53.176;8.194;2023-10-08T01:24:14;6.43;;;3.92;;
18443;SDS011;9350;53.176;8.194;2023-10-08T01:26:42;6.70;;;3.30;;
18443;SDS011;9350;53.176;8.194;2023-10-08T01:29:10;6.13;;;4.15;;
18443;SDS011;9350;53.176;8.194;2023-10-08T01:31:44;5.90;;;3.90;;
18443;SDS011;9350;53.176;8.194;2023-10-08T01:34:11;5.78;;;3.60;;
18443;SDS011;9350;53.176;8.194;2023-10-08T01:36:43;7.03;;;3.75;;
18443;SDS011;9350;53.176;8.194;2023-10-08T01:39:10;7.40;;;3.67;;
18443;SDS011;9350;53.176;8.194;2023-10-08T01:41:42;5.60;;;3.83;;
18443;SDS011;9350;53.176;8.194;2023-10-08T01:44:10;4.97;;;3.60;;
18443;SDS011;9350;53.176;8.194;2023-10-08T01:46:37;5.35;;;4.10;;
18443;SDS011;9350;53.176;8.194;2023-10-08T01:49:05;5.63;;;3.80;;
18443;SDS011;9350;53.176;8.194;2023-10-08T01:51:40;6.88;;;3.70;;
18443;SDS011;9350;53.176;8.194;2023-10-08T01:54:11;5.50;;;3.67;;
18443;SDS011;9350;53.176;8.194;2023-10-08T01:56:44;6.32;;;4.00;;
18443;SDS011;9350;53.176;8.194;2023-10-08T01:59:10;5.72;;;4.13;;
18443;SDS011;9350;53.176;8.194;2023-10-08T02:01:39;8.38;;;4.25;;
18443;SDS011;9350;53.176;8.194;2023-10-08T02:04:06;4.15;;;3.35;;
18443;SDS011;9350;53.176;8.194;2023-10-08T02:06:32;8.40;;;3.38;;
18443;SDS011;9350;53.176;8.194;2023-10-08T02:08:59;4.65;;;3.28;;
18443;SDS011;9350;53.176;8.194;2023-10-08T02:11:31;8.75;;;4.43;;
18443;SDS011;9350;53.176;8.194;2023-10-08T02:14:07;7.03;;;4.70;;
18443;SDS011;9350;53.176;8.194;2023-10-08T02:16:34;8.85;;;3.88;;
18443;SDS011;9350;53.176;8.194;2023-10-08T02:19:02;5.75;;;3.78;;
18443;SDS011;9350;53.176;8.194;2023-10-08T02:21:29;8.25;;;3.95;;
18443;SDS011;9350;53.176;8.194;2023-10-08T02:23:56;5.57;;;3.65;;
18443;SDS011;9350;53.176;8.194;2023-10-08T02:26:23;5.78;;;3.55;;
18443;SDS011;9350;53.176;8.194;2023-10-08T02:28:49;5.85;;;4.00;;
18443;SDS011;9350;53.176;8.194;2023-10-08T02:31:18;6.30;;;3.50;;
18443;SDS011;9350;53.176;8.194;2023-10-08T02:33:45;6.60;;;3.83;;
18443;SDS011;9350;53.176;8.194;2023-10-08T02:36:12;7.28;;;3.40;;
18443;SDS011;9350;53.176;8.194;2023-10-08T02:38:39;9.02;;;3.80;;
18443;SDS011;9350;53.176;8.194;2023-10-08T02:41:05;5.47;;;3.50;;
18443;SDS011;9350;53.176;8.194;2023-10-08T02:43:32;5.35;;;3.53;;
18443;SDS011;9350;53.176;8.194;2023-10-08T02:46:01;5.38;;;3.72;;
18443;SDS011;9350;53.176;8.194;2023-10-08T02:48:33;3.92;;;2.97;;
18443;SDS011;9350;53.176;8.194;2023-10-08T02:51:00;7.10;;;2.97;;
18443;SDS011;9350;53.176;8.194;2023-10-08T02:53:36;6.18;;;3.50;;
18443;SDS011;9350;53.176;8.194;2023-10-08T02:56:06;3.83;;;2.92;;
18443;SDS011;9350;53.176;8.194;2023-10-08T02:58:37;6.15;;;3.00;;
18443;SDS011;9350;53.176;8.194;2023-10-08T03:01:05;3.03;;;2.72;;
18443;SDS011;9350;53.176;8.194;2023-10-08T03:03:38;4.47;;;2.97;;
18443;SDS011;9350;53.176;8.194;2023-10-08T03:06:06;4.15;;;3.30;;
18443;SDS011;9350;53.176;8.194;2023-10-08T03:08:36;4.20;;;2.63;;
18443;SDS011;9350;53.176;8.194;2023-10-08T03:11:05;5.60;;;3.13;;
18443;SDS011;9350;53.176;8.194;2023-10-08T03:13:41;3.97;;;2.50;;
18443;SDS011;9350;53.176;8.194;2023-10-08T03:16:11;5.00;;;2.50;;
18443;SDS011;9350;53.176;8.194;2023-10-08T03:18:40;9.85;;;2.97;;
18443;SDS011;9350;53.176;8.194;2023-10-08T03:21:10;4.55;;;2.55;;
18443;SDS011;9350;53.176;8.194;2023-10-08T03:23:58;4.78;;;2.40;;
18443;SDS011;9350;53.176;8.194;2023-10-08T03:26:31;4.07;;;2.28;;
18443;SDS011;9350;53.176;8.194;2023-10-08T03:29:00;4.07;;;2.53;;
18443;SDS011;9350;53.176;8.194;2023-10-08T03:31:32;4.22;;;2.55;;
18443;SDS011;9350;53.176;8.194;2023-10-08T03:34:16;7.35;;;2.13;;
18443;SDS011;9350;53.176;8.194;2023-10-08T03:36:44;3.30;;;2.20;;
18443;SDS011;9350;53.176;8.194;2023-10-08T03:39:12;3.80;;;2.63;;
18443;SDS011;9350;53.176;8.194;2023-10-08T03:41:39;3.55;;;2.00;;
18443;SDS011;9350;53.176;8.194;2023-10-08T03:44:06;4.22;;;2.25;;
18443;SDS011;9350;53.176;8.194;2023-10-08T03:46:38;6.47;;;2.40;;
18443;SDS011;9350;53.176;8.194;2023-10-08T03:49:07;2.90;;;1.85;;
18443;SDS011;9350;53.176;8.194;2023-10-08T03:51:51;5.32;;;2.25;;
18443;SDS011;9350;53.176;8.194;2023-10-08T03:54:18;5.43;;;2.28;;
18443;SDS011;9350;53.176;8.194;2023-10-08T03:56:54;4.15;;;2.25;;
18443;SDS011;9350;53.176;8.194;2023-10-08T03:59:22;4.65;;;2.22;;
18443;SDS011;9350;53.176;8.194;2023-10-08T04:01:56;7.30;;;1.98;;
18443;SDS011;9350;53.176;8.194;2023-10-08T04:04:38;5.28;;;1.90;;
18443;SDS011;9350;53.176;8.194;2023-10-08T04:07:20;4.57;;;2.30;;
18443;SDS011;9350;53.176;8.194;2023-10-08T04:09:53;3.85;;;1.75;;
18443;SDS011;9350;53.176;8.194;2023-10-08T04:12:41;2.90;;;1.90;;
18443;SDS011;9350;53.176;8.194;2023-10-08T04:15:12;2.60;;;2.00;;
18443;SDS011;9350;53.176;8.194;2023-10-08T04:17:41;3.30;;;2.05;;
18443;SDS011;9350;53.176;8.194;2023-10-08T04:20:10;2.72;;;1.73;;
18443;SDS011;9350;53.176;8.194;2023-10-08T04:22:57;4.40;;;2.10;;
18443;SDS011;9350;53.176;8.194;2023-10-08T04:25:24;4.00;;;1.80;;
18443;SDS011;9350;53.176;8.194;2023-10-08T04:27:52;5.72;;;1.75;;
18443;SDS011;9350;53.176;8.194;2023-10-08T04:30:19;9.05;;;2.00;;
18443;SDS011;9350;53.176;8.194;2023-10-08T04:32:47;4.72;;;1.60;;
18443;SDS011;9350;53.176;8.194;2023-10-08T04:35:17;4.80;;;1.80;;
18443;SDS011;9350;53.176;8.194;2023-10-08T04:37:50;4.80;;;1.80;;
18443;SDS011;9350;53.176;8.194;2023-10-08T04:40:19;7.03;;;1.50;;
18443;SDS011;9350;53.176;8.194;2023-10-08T04:42:49;3.05;;;1.30;;
18443;SDS011;9350;53.176;8.194;2023-10-08T04:45:17;4.63;;;1.50;;
18443;SDS011;9350;53.176;8.194;2023-10-08T04:47:51;3.17;;;1.52;;
18443;SDS011;9350;53.176;8.194;2023-10-08T04:50:19;4.63;;;1.35;;
18443;SDS011;9350;53.176;8.194;2023-10-08T04:52:46;2.08;;;1.40;;
18443;SDS011;9350;53.176;8.194;2023-10-08T04:55:24;3.25;;;1.40;;
18443;SDS011;9350;53.176;8.194;2023-10-08T04:57:54;6.57;;;1.55;;
18443;SDS011;9350;53.176;8.194;2023-10-08T05:00:20;2.90;;;1.42;;
18443;SDS011;9350;53.176;8.194;2023-10-08T05:03:06;2.92;;;1.40;;
18443;SDS011;9350;53.176;8.194;2023-10-08T05:05:38;3.40;;;1.58;;
18443;SDS011;9350;53.176;8.194;2023-10-08T05:08:20;3.50;;;1.33;;
18443;SDS011;9350;53.176;8.194;2023-10-08T05:10:59;3.30;;;1.60;;
18443;SDS011;9350;53.176;8.194;2023-10-08T05:13:40;7.28;;;1.50;;
18443;SDS011;9350;53.176;8.194;2023-10-08T05:16:20;4.53;;;1.38;;
18443;SDS011;9350;53.176;8.194;2023-10-08T05:19:01;2.08;;;1.27;;
18443;SDS011;9350;53.176;8.194;2023-10-08T05:21:39;3.22;;;1.10;;
18443;SDS011;9350;53.176;8.194;2023-10-08T05:24:26;5.30;;;1.60;;
18443;SDS011;9350;53.176;8.194;2023-10-08T05:27:04;4.45;;;1.30;;
18443;SDS011;9350;53.176;8.194;2023-10-08T05:29:49;4.95;;;1.70;;
18443;SDS011;9350;53.176;8.194;2023-10-08T05:32:39;5.80;;;1.50;;
18443;SDS011;9350;53.176;8.194;2023-10-08T05:35:29;4.88;;;1.50;;
18443;SDS011;9350;53.176;8.194;2023-10-08T05:38:14;6.65;;;1.38;;
18443;SDS011;9350;53.176;8.194;2023-10-08T05:40:41;6.03;;;1.77;;
18443;SDS011;9350;53.176;8.194;2023-10-08T05:43:28;5.50;;;1.52;;
18443;SDS011;9350;53.176;8.194;2023-10-08T05:46:14;3.13;;;1.60;;
18443;SDS011;9350;53.176;8.194;2023-10-08T05:49:07;2.50;;;1.30;;
18443;SDS011;9350;53.176;8.194;2023-10-08T05:52:07;5.65;;;1.75;;
18443;SDS011;9350;53.176;8.194;2023-10-08T05:54:50;8.23;;;1.60;;
18443;SDS011;9350;53.176;8.194;2023-10-08T05:57:35;1.98;;;1.50;;
18443;SDS011;9350;53.176;8.194;2023-10-08T06:00:07;3.03;;;1.70;;
18443;SDS011;9350;53.176;8.194;2023-10-08T06:02:51;6.22;;;1.33;;
18443;SDS011;9350;53.176;8.194;2023-10-08T06:05:34;4.22;;;1.45;;
18443;SDS011;9350;53.176;8.194;2023-10-08T06:08:11;4.88;;;1.50;;
18443;SDS011;9350;53.176;8.194;2023-10-08T06:10:38;6.22;;;1.45;;
18443;SDS011;9350;53.176;8.194;2023-10-08T06:13:09;3.58;;;1.60;;
18443;SDS011;9350;53.176;8.194;2023-10-08T06:15:43;5.22;;;1.50;;
18443;SDS011;9350;53.176;8.194;2023-10-08T06:18:13;7.30;;;1.73;;
18443;SDS011;9350;53.176;8.194;2023-10-08T06:20:40;3.67;;;1.50;;
18443;SDS011;9350;53.176;8.194;2023-10-08T06:23:08;6.68;;;1.40;;
18443;SDS011;9350;53.176;8.194;2023-10-08T06:25:37;4.18;;;1.55;;
18443;SDS011;9350;53.176;8.194;2023-10-08T06:28:11;6.65;;;1.40;;
18443;SDS011;9350;53.176;8.194;2023-10-08T06:30:40;7.68;;;1.30;;
18443;SDS011;9350;53.176;8.194;2023-10-08T06:33:09;6.30;;;1.38;;
18443;SDS011;9350;53.176;8.194;2023-10-08T06:35:36;4.85;;;1.40;;
18443;SDS011;9350;53.176;8.194;2023-10-08T06:38:03;6.82;;;1.63;;
18443;SDS011;9350;53.176;8.194;2023-10-08T06:40:33;2.80;;;1.25;;
18443;SDS011;9350;53.176;8.194;2023-10-08T06:43:05;4.97;;;1.63;;
18443;SDS011;9350;53.176;8.194;2023-10-08T06:45:39;8.65;;;1.67;;
18443;SDS011;9350;53.176;8.194;2023-10-08T06:48:08;2.50;;;1.40;;
18443;SDS011;9350;53.176;8.194;2023-10-08T06:50:35;4.95;;;1.15;;
18443;SDS011;9350;53.176;8.194;2023-10-08T06:53:02;3.50;;;1.50;;
18443;SDS011;9350;53.176;8.194;2023-10-08T06:55:32;6.78;;;1.60;;
18443;SDS011;9350;53.176;8.194;2023-10-08T06:58:00;5.72;;;1.60;;
18443;SDS011;9350;53.176;8.194;2023-10-08T07:00:30;6.15;;;1.60;;
18443;SDS011;9350;53.176;8.194;2023-10-08T07:03:16;5.25;;;1.60;;
18443;SDS011;9350;53.176;8.194;2023-10-08T07:05:43;4.63;;;1.45;;
18443;SDS011;9350;53.176;8.194;2023-10-08T07:08:19;3.03;;;1.60;;
18443;SDS011;9350;53.176;8.194;2023-10-08T07:10:48;8.45;;;1.50;;
18443;SDS011;9350;53.176;8.194;2023-10-08T07:13:15;7.35;;;1.60;;
18443;SDS011;9350;53.176;8.194;2023-10-08T07:15:42;2.85;;;1.40;;
18443;SDS011;9350;53.176;8.194;2023-10-08T07:18:10;8.00;;;1.60;;
18443;SDS011;9350;53.176;8.194;2023-10-08T07:20:40;6.13;;;1.38;;
18443;SDS011;9350;53.176;8.194;2023-10-08T07:23:10;5.28;;;1.77;;
18443;SDS011;9350;53.176;8.194;2023-10-08T07:25:44;6.25;;;1.58;;
18443;SDS011;9350;53.176;8.194;2023-10-08T07:28:17;4.75;;;1.60;;
18443;SDS011;9350;53.176;8.194;2023-10-08T07:30:44;7.15;;;1.52;;
18443;SDS011;9350;53.176;8.194;2023-10-08T07:33:11;3.33;;;1.25;;
18443;SDS011;9350;53.176;8.194;2023-10-08T07:35:44;6.22;;;1.45;;
18443;SDS011;9350;53.176;8.194;2023-10-08T07:38:19;4.25;;;1.50;;
18443;SDS011;9350;53.176;8.194;2023-10-08T07:40:47;6.57;;;1.50;;
18443;SDS011;9350;53.176;8.194;2023-10-08T07:43:15;10.50;;;2.08;;
18443;SDS011;9350;53.176;8.194;2023-10-08T07:45:45;8.07;;;1.40;;
18443;SDS011;9350;53.176;8.194;2023-10-08T07:48:12;9.43;;;1.60;;
18443;SDS011;9350;53.176;8.194;2023-10-08T07:50:40;9.63;;;1.60;;
18443;SDS011;9350;53.176;8.194;2023-10-08T07:53:11;10.23;;;1.70;;
18443;SDS011;9350;53.176;8.194;2023-10-08T07:55:43;4.60;;;1.27;;
18443;SDS011;9350;53.176;8.194;2023-10-08T07:58:14;3.85;;;1.48;;
18443;SDS011;9350;53.176;8.194;2023-10-08T08:00:42;3.38;;;1.10;;
18443;SDS011;9350;53.176;8.194;2023-10-08T08:03:17;10.57;;;1.40;;
18443;SDS011;9350;53.176;8.194;2023-10-08T08:05:44;4.25;;;1.77;;
18443;SDS011;9350;53.176;8.194;2023-10-08T08:08:14;9.48;;;1.45;;
18443;SDS011;9350;53.176;8.194;2023-10-08T08:10:43;5.75;;;1.70;;
18443;SDS011;9350;53.176;8.194;2023-10-08T08:13:10;5.05;;;1.48;;
18443;SDS011;9350;53.176;8.194;2023-10-08T08:15:38;8.25;;;1.40;;
18443;SDS011;9350;53.176;8.194;2023-10-08T08:18:08;5.35;;;1.40;;
18443;SDS011;9350;53.176;8.194;2023-10-08T08:20:43;5.78;;;1.45;;
18443;SDS011;9350;53.176;8.194;2023-10-08T08:23:14;7.03;;;1.58;;
18443;SDS011;9350;53.176;8.194;2023-10-08T08:25:41;4.80;;;1.33;;
18443;SDS011;9350;53.176;8.194;2023-10-08T08:28:20;10.07;;;1.98;;
18443;SDS011;9350;53.176;8.194;2023-10-08T08:30:49;6.35;;;1.45;;
18443;SDS011;9350;53.176;8.194;2023-10-08T08:33:17;8.95;;;1.70;;
18443;SDS011;9350;53.176;8.194;2023-10-08T08:35:47;7.25;;;1.50;;
18443;SDS011;9350;53.176;8.194;2023-10-08T08:38:25;4.30;;;1.13;;
18443;SDS011;9350;53.176;8.194;2023-10-08T08:41:01;4.07;;;1.25;;
18443;SDS011;9350;53.176;8.194;2023-10-08T08:43:31;7.90;;;1.63;;
18443;SDS011;9350;53.176;8.194;2023-10-08T08:46:00;8.45;;;1.60;;
18443;SDS011;9350;53.176;8.194;2023-10-08T08:48:30;3.10;;;1.17;;
18443;SDS011;9350;53.176;8.194;2023-10-08T08:50:59;5.97;;;1.30;;
18443;SDS011;9350;53.176;8.194;2023-10-08T08:53:28;6.97;;;1.63;;
18443;SDS011;9350;53.176;8.194;2023-10-08T08:55:55;5.93;;;1.25;;
18443;SDS011;9350;53.176;8.194;2023-10-08T08:58:23;4.63;;;1.17;;
18443;SDS011;9350;53.176;8.194;2023-10-08T09:00:50;4.35;;;1.20;;
18443;SDS011;9350;53.176;8.194;2023-10-08T09:03:19;4.70;;;1.38;;
18443;SDS011;9350;53.176;8.194;2023-10-08T09:05:45;3.20;;;1.20;;
18443;SDS011;9350;53.176;8.194;2023-10-08T09:08:16;5.78;;;1.50;;
18443;SDS011;9350;53.176;8.194;2023-10-08T09:10:45;5.72;;;1.30;;
18443;SDS011;9350;53.176;8.194;2023-10-08T09:13:18;5.32;;;1.33;;
18443;SDS011;9350;53.176;8.194;2023-10-08T09:15:47;5.70;;;1.40;;
18443;SDS011;9350;53.176;8.194;2023-10-08T09:18:14;7.40;;;1.40;;
18443;SDS011;9350;53.176;8.194;2023-10-08T09:20:41;3.10;;;1.15;;
18443;SDS011;9350;53.176;8.194;2023-10-08T09:23:10;4.85;;;1.23;;
18443;SDS011;9350;53.176;8.194;2023-10-08T09:25:39;5.22;;;1.35;;
18443;SDS011;9350;53.176;8.194;2023-10-08T09:28:08;5.38;;;1.33;;
18443;SDS011;9350;53.176;8.194;2023-10-08T09:30:38;6.60;;;1.98;;
18443;SDS011;9350;53.176;8.194;2023-10-08T09:33:05;3.30;;;1.20;;
18443;SDS011;9350;53.176;8.194;2023-10-08T09:35:33;4.63;;;1.23;;
18443;SDS011;9350;53.176;8.194;2023-10-08T09:38:01;10.38;;;1.50;;
18443;SDS011;9350;53.176;8.194;2023-10-08T09:40:29;2.33;;;1.27;;
18443;SDS011;9350;53.176;8.194;2023-10-08T09:42:56;6.70;;;2.15;;
18443;SDS011;9350;53.176;8.194;2023-10-08T09:45:24;5.65;;;1.20;;
18443;SDS011;9350;53.176;8.194;2023-10-08T09:47:53;4.93;;;1.10;;
18443;SDS011;9350;53.176;8.194;2023-10-08T09:50:22;4.70;;;1.10;;
18443;SDS011;9350;53.176;8.194;2023-10-08T09:52:56;4.97;;;1.27;;
18443;SDS011;9350;53.176;8.194;2023-10-08T09:55:29;8.75;;;1.15;;
18443;SDS011;9350;53.176;8.194;2023-10-08T09:57:55;4.18;;;1.08;;
18443;SDS011;9350;53.176;8.194;2023-10-08T10:00:22;5.55;;;1.17;;
18443;SDS011;9350;53.176;8.194;2023-10-08T10:02:56;5.72;;;1.20;;
18443;SDS011;9350;53.176;8.194;2023-10-08T10:05:28;9.77;;;1.60;;
18443;SDS011;9350;53.176;8.194;2023-10-08T10:07:56;6.03;;;1.48;;
18443;SDS011;9350;53.176;8.194;2023-10-08T10:10:26;3.28;;;1.40;;
18443;SDS011;9350;53.176;8.194;2023-10-08T10:12:58;4.68;;;1.13;;
18443;SDS011;9350;53.176;8.194;2023-10-08T10:15:27;3.47;;;1.60;;
18443;SDS011;9350;53.176;8.194;2023-10-08T10:17:58;2.97;;;1.08;;
18443;SDS011;9350;53.176;8.194;2023-10-08T10:20:33;4.70;;;1.40;;
18443;SDS011;9350;53.176;8.194;2023-10-08T10:23:00;3.60;;;1.15;;
18443;SDS011;9350;53.176;8.194;2023-10-08T10:26:04;8.60;;;1.50;;
18443;SDS011;9350;53.176;8.194;2023-10-08T10:28:50;5.72;;;1.30;;
18443;SDS011;9350;53.176;8.194;2023-10-08T10:31:46;8.60;;;1.50;;
18443;SDS011;9350;53.176;8.194;2023-10-08T10:34:15;8.55;;;1.65;;
18443;SDS011;9350;53.176;8.194;2023-10-08T10:36:43;3.75;;;1.33;;
18443;SDS011;9350;53.176;8.194;2023-10-08T10:39:13;5.88;;;1.50;;
18443;SDS011;9350;53.176;8.194;2023-10-08T10:41:42;2.83;;;1.05;;
18443;SDS011;9350;53.176;8.194;2023-10-08T10:44:10;2.97;;;1.10;;
18443;SDS011;9350;53.176;8.194;2023-10-08T10:46:38;4.65;;;1.10;;
18443;SDS011;9350;53.176;8.194;2023-10-08T10:49:09;5.20;;;1.45;;
18443;SDS011;9350;53.176;8.194;2023-10-08T10:51:46;2.85;;;1.20;;
18443;SDS011;9350;53.176;8.194;2023-10-08T10:54:15;6.85;;;1.38;;
18443;SDS011;9350;53.176;8.194;2023-10-08T10:56:45;5.15;;;1.48;;
18443;SDS011;9350;53.176;8.194;2023-10-08T10:59:12;6.07;;;1.38;;
18443;SDS011;9350;53.176;8.194;2023-10-08T11:01:44;3.33;;;1.10;;
18443;SDS011;9350;53.176;8.194;2023-10-08T11:04:18;3.72;;;1.15;;
18443;SDS011;9350;53.176;8.194;2023-10-08T11:06:47;6.18;;;1.10;;
18443;SDS011;9350;53.176;8.194;2023-10-08T11:09:21;4.47;;;1.20;;
18443;SDS011;9350;53.176;8.194;2023-10-08T11:12:01;4.20;;;1.05;;
18443;SDS011;9350;53.176;8.194;2023-10-08T11:14:35;5.10;;;1.35;;
18443;SDS011;9350;53.176;8.194;2023-10-08T11:17:09;9.23;;;1.40;;
18443;SDS011;9350;53.176;8.194;2023-10-08T11:19:41;6.47;;;1.20;;
18443;SDS011;9350;53.176;8.194;2023-10-08T11:22:11;7.88;;;1.17;;
18443;SDS011;9350;53.176;8.194;2023-10-08T11:24:41;10.77;;;1.40;;
18443;SDS011;9350;53.176;8.194;2023-10-08T11:27:12;5.63;;;1.20;;
18443;SDS011;9350;53.176;8.194;2023-10-08T11:29:43;4.10;;;1.10;;
18443;SDS011;9350;53.176;8.194;2023-10-08T11:32:12;8.75;;;1.77;;
18443;SDS011;9350;53.176;8.194;2023-10-08T11:34:43;6.35;;;1.15;;
18443;SDS011;9350;53.176;8.194;2023-10-08T11:37:15;4.50;;;1.55;;
18443;SDS011;9350;53.176;8.194;2023-10-08T11:39:51;2.42;;;1.23;;
18443;SDS011;9350;53.176;8.194;2023-10-08T11:42:22;5.72;;;1.33;;
18443;SDS011;9350;53.176;8.194;2023-10-08T11:45:06;2.60;;;1.13;;
18443;SDS011;9350;53.176;8.194;2023-10-08T11:47:49;6.32;;;1.30;;
18443;SDS011;9350;53.176;8.194;2023-10-08T11:50:23;6.15;;;1.00;;
18443;SDS011;9350;53.176;8.194;2023-10-08T11:52:56;3.38;;;1.13;;
18443;SDS011;9350;53.176;8.194;2023-10-08T11:55:26;8.52;;;1.30;;
18443;SDS011;9350;53.176;8.194;2023-10-08T11:57:53;3.55;;;1.33;;
18443;SDS011;9350;53.176;8.194;2023-10-08T12:00:21;4.30;;;1.42;;
18443;SDS011;9350;53.176;8.194;2023-10-08T12:02:50;3.55;;;1.27;;
18443;SDS011;9350;53.176;8.194;2023-10-08T12:05:19;4.03;;;1.25;;
18443;SDS011;9350;53.176;8.194;2023-10-08T12:07:50;3.28;;;1.20;;
18443;SDS011;9350;53.176;8.194;2023-10-08T12:10:17;3.60;;;1.08;;
18443;SDS011;9350;53.176;8.194;2023-10-08T12:12:47;5.93;;;1.48;;
18443;SDS011;9350;53.176;8.194;2023-10-08T12:15:15;3.45;;;1.23;;
18443;SDS011;9350;53.176;8.194;2023-10-08T12:17:47;9.55;;;1.30;;
18443;SDS011;9350;53.176;8.194;2023-10-08T12:20:33;5.00;;;1.20;;
18443;SDS011;9350;53.176;8.194;2023-10-08T12:23:05;6.05;;;1.77;;
18443;SDS011;9350;53.176;8.194;2023-10-08T12:25:35;6.05;;;1.60;;
18443;SDS011;9350;53.176;8.194;2023-10-08T12:28:02;5.68;;;1.25;;
18443;SDS011;9350;53.176;8.194;2023-10-08T12:30:30;6.15;;;1.40;;
18443;SDS011;9350;53.176;8.194;2023-10-08T12:32:59;4.00;;;1.42;;
18443;SDS011;9350;53.176;8.194;2023-10-08T12:35:31;4.43;;;1.25;;
18443;SDS011;9350;53.176;8.194;2023-10-08T12:37:58;5.60;;;2.20;;
18443;SDS011;9350;53.176;8.194;2023-10-08T12:40:26;8.25;;;2.17;;
18443;SDS011;9350;53.176;8.194;2023-10-08T12:43:07;5.15;;;2.10;;
18443;SDS011;9350;53.176;8.194;2023-10-08T12:45:33;3.38;;;1.42;;
18443;SDS011;9350;53.176;8.194;2023-10-08T12:48:03;4.88;;;1.42;;
18443;SDS011;9350;53.176;8.194;2023-10-08T12:50:33;3.85;;;1.05;;
18443;SDS011;9350;53.176;8.194;2023-10-08T12:53:07;1.33;;;1.02;;
18443;SDS011;9350;53.176;8.194;2023-10-08T12:55:37;4.80;;;1.38;;
18443;SDS011;9350;53.176;8.194;2023-10-08T12:58:05;9.30;;;1.38;;
18443;SDS011;9350;53.176;8.194;2023-10-08T13:00:35;2.92;;;1.27;;
18443;SDS011;9350;53.176;8.194;2023-10-08T13:03:04;4.28;;;1.27;;
18443;SDS011;9350;53.176;8.194;2023-10-08T13:05:40;6.10;;;1.20;;
18443;SDS011;9350;53.176;8.194;2023-10-08T13:08:09;5.65;;;1.13;;
18443;SDS011;9350;53.176;8.194;2023-10-08T13:10:40;3.72;;;1.20;;
18443;SDS011;9350;53.176;8.194;2023-10-08T13:13:09;3.28;;;1.20;;
18443;SDS011;9350;53.176;8.194;2023-10-08T13:15:37;4.63;;;1.17;;
18443;SDS011;9350;53.176;8.194;2023-10-08T13:18:04;7.07;;;1.42;;
18443;SDS011;9350;53.176;8.194;2023-10-08T13:20:31;4.32;;;1.20;;
18443;SDS011;9350;53.176;8.194;2023-10-08T13:22:59;7.78;;;1.58;;
18443;SDS011;9350;53.176;8.194;2023-10-08T13:25:26;3.25;;;1.17;;
18443;SDS011;9350;53.176;8.194;2023-10-08T13:27:54;4.47;;;2.00;;
18443;SDS011;9350;53.176;8.194;2023-10-08T13:30:21;5.72;;;1.50;;
18443;SDS011;9350;53.176;8.194;2023-10-08T13:32:48;2.17;;;1.25;;
18443;SDS011;9350;53.176;8.194;2023-10-08T13:35:16;6.32;;;1.58;;
18443;SDS011;9350;53.176;8.194;2023-10-08T13:37:43;2.33;;;1.38;;
18443;SDS011;9350;53.176;8.194;2023-10-08T13:40:12;2.63;;;1.00;;
18443;SDS011;9350;53.176;8.194;2023-10-08T13:42:40;3.65;;;1.30;;
18443;SDS011;9350;53.176;8.194;2023-10-08T13:45:09;6.53;;;1.27;;
18443;SDS011;9350;53.176;8.194;2023-10-08T13:47:51;8.63;;;1.30;;
18443;SDS011;9350;53.176;8.194;2023-10-08T13:50:18;3.20;;;1.17;;
18443;SDS011;9350;53.176;8.194;2023-10-08T13:52:46;6.70;;;1.40;;
18443;SDS011;9350;53.176;8.194;2023-10-08T13:55:13;5.28;;;1.23;;
18443;SDS011;9350;53.176;8.194;2023-10-08T13:57:42;7.32;;;1.35;;
18443;SDS011;9350;53.176;8.194;2023-10-08T14:00:11;5.20;;;1.55;;
18443;SDS011;9350;53.176;8.194;2023-10-08T14:02:41;2.65;;;1.27;;
18443;SDS011;9350;53.176;8.194;2023-10-08T14:05:09;11.60;;;1.40;;
18443;SDS011;9350;53.176;8.194;2023-10-08T14:07:40;4.38;;;1.02;;
18443;SDS011;9350;53.176;8.194;2023-10-08T14:10:09;4.05;;;1.20;;
18443;SDS011;9350;53.176;8.194;2023-10-08T14:12:43;5.95;;;1.33;;
18443;SDS011;9350;53.176;8.194;2023-10-08T14:15:15;5.40;;;1.48;;
18443;SDS011;9350;53.176;8.194;2023-10-08T14:17:43;6.55;;;1.40;;
18443;SDS011;9350;53.176;8.194;2023-10-08T14:20:13;4.93;;;1.20;;
18443;SDS011;9350;53.176;8.194;2023-10-08T14:22:46;8.40;;;1.48;;
18443;SDS011;9350;53.176;8.194;2023-10-08T14:25:17;3.85;;;1.40;;
18443;SDS011;9350;53.176;8.194;2023-10-08T14:27:49;6.57;;;1.30;;
18443;SDS011;9350;53.176;8.194;2023-10-08T14:30:19;1.63;;;1.27;;
18443;SDS011;9350;53.176;8.194;2023-10-08T14:32:49;4.93;;;1.40;;
18443;SDS011;9350;53.176;8.194;2023-10-08T14:35:15;5.15;;;1.38;;
18443;SDS011;9350;53.176;8.194;2023-10-08T14:38:00;8.02;;;1.58;;
18443;SDS011;9350;53.176;8.194;2023-10-08T14:40:40;2.13;;;1.33;;
18443;SDS011;9350;53.176;8.194;2023-10-08T14:43:25;6.05;;;1.42;;
18443;SDS011;9350;53.176;8.194;2023-10-08T14:45:55;4.28;;;1.40;;
18443;SDS011;9350;53.176;8.194;2023-10-08T14:48:24;2.83;;;1.40;;
18443;SDS011;9350;53.176;8.194;2023-10-08T14:50:54;3.78;;;1.77;;
18443;SDS011;9350;53.176;8.194;2023-10-08T14:53:21;5.30;;;1.45;;
18443;SDS011;9350;53.176;8.194;2023-10-08T14:55:49;3.92;;;1.42;;
18443;SDS011;9350;53.176;8.194;2023-10-08T14:58:16;4.20;;;1.30;;
18443;SDS011;9350;53.176;8.194;2023-10-08T15:00:43;7.32;;;1.52;;
18443;SDS011;9350;53.176;8.194;2023-10-08T15:03:11;4.22;;;1.50;;
18443;SDS011;9350;53.176;8.194;2023-10-08T15:05:38;5.05;;;1.40;;
18443;SDS011;9350;53.176;8.194;2023-10-08T15:08:05;2.25;;;1.27;;
18443;SDS011;9350;53.176;8.194;2023-10-08T15:10:34;3.85;;;1.13;;
18443;SDS011;9350;53.176;8.194;2023-10-08T15:13:01;6.25;;;1.90;;
18443;SDS011;9350;53.176;8.194;2023-10-08T15:15:28;7.30;;;1.70;;
18443;SDS011;9350;53.176;8.194;2023-10-08T15:17:59;3.42;;;1.50;;
18443;SDS011;9350;53.176;8.194;2023-10-08T15:20:28;5.93;;;1.30;;
18443;SDS011;9350;53.176;8.194;2023-10-08T15:22:57;5.60;;;1.48;;
18443;SDS011;9350;53.176;8.194;2023-10-08T15:25:24;5.95;;;1.63;;